Time;durP1;ratioP1;P1;durP2;ratioP2;P2;SDS_P1;SDS_P2;PMS_P1;PMS_P2;Temp;Humidity;BMP_temperature;BMP_pressure;BME280_temperature;BME280_humidity;BME280_pressure;Samples;Min_cycle;Max_cycle;Signal;HPM_P1;HPM_P2
2023/11/04 00:00:52;;;;;;;1.80;1.05;;;;;;;9.88;64.44;98057.34;4423511;32;32341;-91
2023/11/04 00:03:39;;;;;;;1.27;0.98;;;;;;;9.95;64.64;98081.47;4412291;32;33916;-90
2023/11/04 00:06:07;;;;;;;1.85;1.05;;;;;;;9.90;64.86;98086.22;4408993;32;33336;-90
2023/11/04 00:08:35;;;;;;;0.80;0.80;;;;;;;9.71;64.99;98091.88;4427391;32;33201;-90
2023/11/04 00:11:18;;;;;;;0.30;0.17;;;;;;;9.82;64.72;98104.34;4417315;32;32849;-90
2023/11/04 00:14:06;;;;;;;0.45;0.45;;;;;;;9.81;64.85;98100.84;4422683;32;32955;-91
2023/11/04 00:16:59;;;;;;;0.10;0.10;;;;;;;9.82;64.78;98105.19;4426339;32;32736;-88
2023/11/04 00:19:27;;;;;;;0.00;0.00;;;;;;;9.92;64.06;98106.28;4421179;32;33855;-88
2023/11/04 00:21:55;;;;;;;0.20;0.20;;;;;;;9.85;64.31;98107.62;4415984;32;32234;-87
2023/11/04 00:24:24;;;;;;;0.10;0.10;;;;;;;9.69;64.73;98112.25;4410850;32;32708;-89
2023/11/04 00:26:52;;;;;;;0.10;0.00;;;;;;;9.75;64.47;98115.31;4402123;32;33978;-88
2023/11/04 00:29:41;;;;;;;0.73;0.20;;;;;;;9.70;64.40;98112.13;4415881;32;33460;-90
2023/11/04 00:32:09;;;;;;;0.00;0.00;;;;;;;9.88;63.39;98110.06;4401352;32;32735;-91
2023/11/04 00:34:57;;;;;;;0.25;0.05;;;;;;;9.61;64.17;98111.91;4415074;32;32639;-91
2023/11/04 00:37:47;;;;;;;0.30;0.30;;;;;;;9.70;64.33;98098.13;4429021;32;33299;-91
2023/11/04 00:40:38;;;;;;;0.05;0.05;;;;;;;9.73;64.23;98095.25;4426880;32;33969;-91
2023/11/04 00:43:45;;;;;;;0.60;0.60;;;;;;;9.66;63.32;98094.84;4415274;32;32644;-91
2023/11/04 00:46:33;;;;;;;0.10;0.10;;;;;;;9.66;64.37;98086.09;4414040;32;34145;-91
2023/11/04 00:49:21;;;;;;;0.90;0.25;;;;;;;9.64;64.48;98096.75;4407023;32;33443;-91
2023/11/04 00:52:10;;;;;;;0.00;0.00;;;;;;;9.57;64.79;98095.44;4393543;32;33217;-91
2023/11/04 00:54:58;;;;;;;0.03;0.03;;;;;;;9.59;64.35;98104.09;4410477;32;33119;-90
2023/11/04 00:57:48;;;;;;;0.43;0.25;;;;;;;9.40;65.58;98101.84;4400367;32;32943;-91
2023/11/04 01:00:36;;;;;;;0.77;0.43;;;;;;;9.47;65.18;98105.75;4413831;32;34566;-91
2023/11/04 01:03:24;;;;;;;0.00;0.00;;;;;;;9.49;65.67;98111.78;4405493;32;33447;-90
2023/11/04 01:06:12;;;;;;;0.00;0.00;;;;;;;9.47;65.45;98110.19;4415690;32;32365;-91
2023/11/04 01:09:03;;;;;;;0.00;0.00;;;;;;;9.46;66.17;98114.59;4417268;32;33420;-90
2023/11/04 01:11:51;;;;;;;0.00;0.00;;;;;;;9.58;65.37;98106.81;4405344;32;33336;-90
2023/11/04 01:14:38;;;;;;;0.00;0.00;;;;;;;9.60;65.06;98104.94;4395208;32;33159;-88
2023/11/04 01:17:26;;;;;;;0.10;0.10;;;;;;;9.48;65.14;98101.31;4413800;32;34111;-88
2023/11/04 01:20:15;;;;;;;0.00;0.00;;;;;;;9.39;65.95;98099.28;4424103;32;33493;-88
2023/11/04 01:23:02;;;;;;;0.20;0.20;;;;;;;9.46;65.51;98090.91;4405209;32;35915;-87
2023/11/04 01:25:50;;;;;;;0.00;0.00;;;;;;;9.56;65.58;98082.38;4413749;32;33116;-88
2023/11/04 01:28:38;;;;;;;0.35;0.35;;;;;;;9.48;66.16;98094.25;4426422;32;32132;-90
2023/11/04 01:31:46;;;;;;;0.15;0.10;;;;;;;9.68;65.38;98097.34;4417703;32;33524;-91
2023/11/04 01:34:34;;;;;;;0.00;0.00;;;;;;;9.55;65.64;98100.00;4427514;32;33626;-90
2023/11/04 01:37:25;;;;;;;0.00;0.00;;;;;;;9.58;65.72;98106.81;4413471;32;32806;-89
2023/11/04 01:40:13;;;;;;;0.40;0.40;;;;;;;9.70;65.58;98108.66;4417274;32;32280;-88
2023/11/04 01:43:02;;;;;;;0.00;0.00;;;;;;;9.78;65.57;98110.75;4422621;32;33341;-88
2023/11/04 01:45:53;;;;;;;0.00;0.00;;;;;;;9.70;66.15;98106.03;4423703;32;33817;-89
2023/11/04 01:48:43;;;;;;;0.00;0.00;;;;;;;9.78;65.66;98114.25;4423792;32;35673;-89
2023/11/04 01:51:30;;;;;;;0.05;0.05;;;;;;;9.67;66.11;98122.03;4399001;32;34229;-89
2023/11/04 01:54:20;;;;;;;0.00;0.00;;;;;;;9.75;65.83;98130.28;4419016;32;33125;-89
2023/11/04 01:57:07;;;;;;;0.00;0.00;;;;;;;9.81;65.39;98124.59;4426692;32;33741;-84
2023/11/04 01:59:55;;;;;;;0.00;0.00;;;;;;;9.64;66.37;98133.63;4420600;32;33122;-85
2023/11/04 02:02:44;;;;;;;0.20;0.08;;;;;;;9.97;65.17;98119.13;4407686;32;34489;-85
2023/11/04 02:05:32;;;;;;;0.75;0.65;;;;;;;9.91;65.03;98125.66;4419909;32;34074;-85
2023/11/04 02:08:20;;;;;;;0.08;0.08;;;;;;;9.82;65.88;98123.63;4413390;32;33324;-85
2023/11/04 02:11:08;;;;;;;0.00;0.00;;;;;;;9.76;65.88;98126.69;4408863;32;33504;-85
2023/11/04 02:13:55;;;;;;;0.00;0.00;;;;;;;9.89;65.75;98111.75;4417094;32;33954;-86
2023/11/04 02:16:43;;;;;;;0.00;0.00;;;;;;;9.80;65.84;98116.78;4417683;32;33380;-86
2023/11/04 02:19:31;;;;;;;0.00;0.00;;;;;;;9.85;65.95;98112.88;4405874;32;34896;-85
2023/11/04 02:22:19;;;;;;;0.10;0.10;;;;;;;9.79;66.66;98120.38;4425621;32;33301;-89
2023/11/04 02:25:10;;;;;;;0.20;0.20;;;;;;;9.93;65.82;98130.84;4420648;32;33926;-89
2023/11/04 02:27:58;;;;;;;0.00;0.00;;;;;;;9.87;65.67;98136.50;4403428;32;33895;-89
2023/11/04 02:30:45;;;;;;;0.00;0.00;;;;;;;9.99;64.87;98133.06;4402824;32;33675;-87
2023/11/04 02:33:34;;;;;;;0.45;0.30;;;;;;;10.07;65.22;98129.91;4421461;32;34139;-87
2023/11/04 02:36:22;;;;;;;4.07;0.30;;;;;;;9.97;65.88;98125.25;4424396;32;32652;-88
2023/11/04 02:39:10;;;;;;;0.00;0.00;;;;;;;10.10;65.49;98129.69;4418033;32;33982;-90
2023/11/04 02:41:58;;;;;;;0.00;0.00;;;;;;;10.01;65.79;98128.50;4423075;32;34081;-89
2023/11/04 02:44:46;;;;;;;0.00;0.00;;;;;;;10.20;65.69;98125.44;4413907;32;33673;-88
2023/11/04 02:47:33;;;;;;;0.00;0.00;;;;;;;10.47;64.39;98118.31;4420221;32;35729;-88
2023/11/04 02:50:22;;;;;;;0.10;0.10;;;;;;;10.65;63.36;98112.69;4414258;32;33111;-89
2023/11/04 02:53:10;;;;;;;0.00;0.00;;;;;;;10.40;64.24;98119.69;4405543;32;33178;-88
2023/11/04 02:55:58;;;;;;;0.00;0.00;;;;;;;10.37;64.49;98117.25;4397495;32;33471;-89
2023/11/04 02:58:46;;;;;;;0.52;0.52;;;;;;;10.37;64.09;98127.81;4403498;32;32576;-89
2023/11/04 03:01:36;;;;;;;2.65;0.20;;;;;;;10.39;64.00;98125.91;4419897;32;33449;-90
2023/11/04 03:04:25;;;;;;;0.10;0.10;;;;;;;10.06;65.64;98134.31;4421856;32;33431;-90
2023/11/04 03:07:14;;;;;;;0.00;0.00;;;;;;;10.17;65.00;98138.88;4409505;32;33087;-90
2023/11/04 03:10:04;;;;;;;0.00;0.00;;;;;;;10.12;65.80;98141.81;4415880;32;32993;-90
2023/11/04 03:12:56;;;;;;;0.00;0.00;;;;;;;10.14;65.97;98139.06;4413720;32;34207;-91
2023/11/04 03:15:44;;;;;;;0.00;0.00;;;;;;;10.21;66.05;98143.00;4408507;32;34256;-90
2023/11/04 03:18:46;;;;;;;0.00;0.00;;;;;;;10.13;66.08;98151.41;4414089;32;33984;-89
2023/11/04 03:21:35;;;;;;;0.00;0.00;;;;;;;10.25;66.04;98139.19;4431730;32;34019;-89
2023/11/04 03:24:23;;;;;;;0.45;0.45;;;;;;;10.27;65.88;98126.75;4409270;32;33049;-89
2023/11/04 03:27:14;;;;;;;0.15;0.15;;;;;;;10.25;65.88;98131.28;4414229;32;33537;-89
2023/11/04 03:30:11;;;;;;;0.13;0.13;;;;;;;10.35;65.75;98142.91;4404082;32;32963;-86
2023/11/04 03:32:59;;;;;;;0.00;0.00;;;;;;;10.51;64.74;98146.16;4409417;32;33358;-86
2023/11/04 03:35:47;;;;;;;0.25;0.25;;;;;;;10.37;65.44;98148.91;4416012;32;33576;-86
2023/11/04 03:38:35;;;;;;;0.00;0.00;;;;;;;10.24;66.27;98154.19;4421102;32;33705;-87
2023/11/04 03:41:23;;;;;;;0.00;0.00;;;;;;;10.26;66.54;98156.75;4421709;32;34631;-88
2023/11/04 03:44:12;;;;;;;0.00;0.00;;;;;;;10.35;66.19;98158.75;4411034;32;33888;-91
2023/11/04 03:47:00;;;;;;;0.00;0.00;;;;;;;10.36;66.49;98167.50;4426250;32;33371;-90
2023/11/04 03:49:48;;;;;;;0.00;0.00;;;;;;;10.35;66.24;98161.38;4407423;32;33782;-89
2023/11/04 03:52:36;;;;;;;0.00;0.00;;;;;;;10.29;66.48;98153.88;4408300;32;34209;-89
2023/11/04 03:55:24;;;;;;;0.00;0.00;;;;;;;10.41;66.12;98155.69;4414202;32;32460;-89
2023/11/04 03:58:12;;;;;;;0.00;0.00;;;;;;;10.57;65.50;98159.88;4405590;32;34427;-89
2023/11/04 04:01:03;;;;;;;0.00;0.00;;;;;;;10.45;66.08;98167.72;4426455;32;33277;-88
2023/11/04 04:03:51;;;;;;;0.28;0.28;;;;;;;10.48;65.87;98179.84;4395608;32;33001;-89
2023/11/04 04:06:39;;;;;;;0.00;0.00;;;;;;;10.69;65.56;98181.00;4404518;32;33574;-89
2023/11/04 04:09:27;;;;;;;0.15;0.10;;;;;;;10.61;65.84;98180.69;4418257;32;34286;-89
2023/11/04 04:12:15;;;;;;;0.75;0.52;;;;;;;10.60;65.92;98175.50;4423178;32;33769;-87
2023/11/04 04:15:04;;;;;;;0.22;0.22;;;;;;;10.66;65.56;98164.53;4415693;32;33390;-89
2023/11/04 04:17:53;;;;;;;0.00;0.00;;;;;;;10.48;66.56;98175.41;4428701;32;32505;-89
2023/11/04 04:20:41;;;;;;;0.00;0.00;;;;;;;10.58;66.12;98177.41;4403471;32;33419;-89
2023/11/04 04:23:29;;;;;;;0.00;0.00;;;;;;;10.51;66.11;98177.84;4401223;32;33831;-89
2023/11/04 04:26:20;;;;;;;0.00;0.00;;;;;;;10.93;64.53;98175.78;4407308;32;33493;-89
2023/11/04 04:29:08;;;;;;;0.00;0.00;;;;;;;10.96;64.15;98185.25;4405961;32;33700;-89
2023/11/04 04:31:57;;;;;;;0.13;0.13;;;;;;;10.72;65.63;98190.47;4424487;32;33171;-89
2023/11/04 04:34:45;;;;;;;0.00;0.00;;;;;;;10.78;65.28;98176.88;4422639;32;32884;-89
2023/11/04 04:37:34;;;;;;;0.00;0.00;;;;;;;11.13;64.17;98179.63;4411516;32;33823;-88
2023/11/04 04:40:22;;;;;;;0.00;0.00;;;;;;;10.85;65.20;98186.03;4409869;32;32990;-89
2023/11/04 04:43:09;;;;;;;0.00;0.00;;;;;;;10.66;65.77;98186.47;4417187;32;33112;-90
2023/11/04 04:45:57;;;;;;;0.00;0.00;;;;;;;11.09;64.64;98183.44;4424871;32;34772;-90
2023/11/04 04:48:47;;;;;;;0.10;0.10;;;;;;;10.87;65.52;98184.16;4413480;32;32624;-84
2023/11/04 04:51:35;;;;;;;0.10;0.10;;;;;;;10.92;65.61;98186.44;4422420;32;35157;-85
2023/11/04 04:54:23;;;;;;;0.65;0.22;;;;;;;11.03;64.90;98170.69;4396707;32;33036;-85
2023/11/04 04:57:11;;;;;;;0.37;0.37;;;;;;;10.88;65.52;98185.00;4409265;32;33356;-85
2023/11/04 04:59:59;;;;;;;0.30;0.30;;;;;;;11.09;65.30;98166.75;4412438;32;33930;-85
2023/11/04 05:02:46;;;;;;;0.13;0.13;;;;;;;11.35;64.07;98151.69;4417640;32;34009;-85
2023/11/04 05:05:34;;;;;;;0.10;0.10;;;;;;;10.96;65.21;98159.69;4426617;32;34366;-85
2023/11/04 05:08:22;;;;;;;0.10;0.10;;;;;;;10.71;66.40;98162.41;4410524;32;33773;-85
2023/11/04 05:11:10;;;;;;;0.00;0.00;;;;;;;10.80;66.04;98150.34;4413248;32;32962;-85
2023/11/04 05:13:58;;;;;;;0.00;0.00;;;;;;;10.72;66.19;98153.53;4411840;32;32561;-89
2023/11/04 05:16:46;;;;;;;0.60;0.35;;;;;;;10.83;65.75;98140.44;4393676;32;34540;-90
2023/11/04 05:19:34;;;;;;;0.00;0.00;;;;;;;10.65;66.41;98142.56;4419116;32;34142;-90
2023/11/04 05:22:25;;;;;;;0.00;0.00;;;;;;;10.83;65.88;98124.59;4406293;32;34343;-90
2023/11/04 05:25:13;;;;;;;0.00;0.00;;;;;;;10.82;66.03;98133.44;4406324;32;33338;-90
2023/11/04 05:28:02;;;;;;;2.40;0.45;;;;;;;10.62;66.15;98136.66;4417172;32;32858;-91
2023/11/04 05:30:50;;;;;;;0.00;0.00;;;;;;;10.83;65.68;98136.94;4423029;32;34720;-91
2023/11/04 05:33:42;;;;;;;0.55;0.55;;;;;;;10.84;65.75;98128.91;4402037;32;33304;-91
2023/11/04 05:36:30;;;;;;;1.45;0.90;;;;;;;10.75;66.32;98135.69;4409510;32;32310;-90
2023/11/04 05:39:19;;;;;;;0.00;0.00;;;;;;;10.82;65.41;98133.44;4404312;32;32620;-91
2023/11/04 05:42:14;;;;;;;0.20;0.20;;;;;;;10.83;65.24;98137.78;4409278;32;33244;-91
2023/11/04 05:45:03;;;;;;;0.10;0.10;;;;;;;10.80;65.59;98138.00;4424334;32;34454;-91
2023/11/04 05:47:50;;;;;;;0.00;0.00;;;;;;;10.80;65.51;98129.22;4414373;32;32205;-91
2023/11/04 05:50:39;;;;;;;0.00;0.00;;;;;;;10.86;64.59;98129.62;4415228;32;33033;-91
2023/11/04 05:53:27;;;;;;;0.05;0.05;;;;;;;10.81;65.45;98131.75;4403741;32;33268;-90
2023/11/04 05:56:18;;;;;;;0.40;0.40;;;;;;;10.92;65.05;98144.19;4403556;32;32820;-91
2023/11/04 05:59:06;;;;;;;0.00;0.00;;;;;;;10.85;64.82;98135.88;4406495;32;32587;-91
2023/11/04 06:01:54;;;;;;;0.05;0.00;;;;;;;10.93;64.80;98141.44;4414079;32;33415;-88
2023/11/04 06:04:43;;;;;;;0.15;0.15;;;;;;;11.02;64.57;98137.31;4414656;32;33085;-88
2023/11/04 06:07:32;;;;;;;0.10;0.10;;;;;;;10.97;64.74;98152.66;4409582;32;33901;-90
2023/11/04 06:10:21;;;;;;;0.10;0.10;;;;;;;11.16;63.40;98152.16;4411642;32;33151;-90
2023/11/04 06:13:09;;;;;;;0.35;0.28;;;;;;;11.11;63.59;98160.44;4424169;32;34183;-87
2023/11/04 06:15:57;;;;;;;0.15;0.15;;;;;;;11.22;63.14;98165.78;4437736;32;33417;-90
2023/11/04 06:18:45;;;;;;;0.00;0.00;;;;;;;11.07;64.36;98166.03;4419732;32;32953;-89
2023/11/04 06:21:33;;;;;;;0.68;0.68;;;;;;;11.08;64.18;98175.66;4436266;32;32612;-89
2023/11/04 06:24:21;;;;;;;1.58;0.20;;;;;;;11.15;63.83;98169.78;4423355;32;33446;-88
2023/11/04 06:27:09;;;;;;;0.00;0.00;;;;;;;11.19;64.23;98151.94;4430462;32;33643;-89
2023/11/04 06:29:57;;;;;;;0.15;0.15;;;;;;;11.25;63.93;98140.91;4415104;32;32835;-89
2023/11/04 06:32:45;;;;;;;0.13;0.13;;;;;;;11.56;63.23;98112.25;4414840;32;32800;-88
2023/11/04 06:35:33;;;;;;;2.08;0.70;;;;;;;11.35;63.86;98104.97;4398837;32;93350;-89
2023/11/04 06:38:22;;;;;;;0.08;0.08;;;;;;;11.05;65.22;98123.03;4429431;32;33549;-88
2023/11/04 06:41:13;;;;;;;0.10;0.10;;;;;;;11.16;64.85;98138.97;4419148;32;33492;-88
2023/11/04 06:44:01;;;;;;;0.05;0.05;;;;;;;11.42;64.35;98159.03;4418731;32;33116;-88
2023/11/04 06:47:07;;;;;;;0.00;0.00;;;;;;;11.68;63.83;98143.03;4414278;32;32790;-88
2023/11/04 06:49:55;;;;;;;0.10;0.10;;;;;;;11.49;64.09;98154.16;4430294;32;33645;-88
2023/11/04 06:52:32;;;;;;;0.20;0.20;;;;;;;11.11;65.57;98176.28;4414628;32;34067;-88
2023/11/04 06:55:01;;;;;;;0.37;0.37;;;;;;;11.11;65.77;98196.53;4424406;32;32314;-89
2023/11/04 06:57:33;;;;;;;2.92;0.98;;;;;;;11.27;65.15;98181.28;4422126;32;32963;-87
2023/11/04 07:00:04;;;;;;;0.20;0.20;;;;;;;11.21;65.90;98185.22;4409116;32;32933;-88
2023/11/04 07:02:32;;;;;;;0.75;0.75;;;;;;;11.29;65.98;98192.56;4410631;32;33544;-89
2023/11/04 07:05:01;;;;;;;1.10;1.00;;;;;;;11.52;65.14;98197.03;4397638;32;33076;-88
2023/11/04 07:07:30;;;;;;;0.20;0.10;;;;;;;11.72;64.33;98181.50;4411449;32;33817;-88
2023/11/04 07:09:57;;;;;;;0.00;0.00;;;;;;;11.35;65.86;98178.09;4410969;32;34276;-88
2023/11/04 07:12:25;;;;;;;0.00;0.00;;;;;;;11.39;65.82;98184.81;4412117;32;32893;-89
2023/11/04 07:14:53;;;;;;;0.10;0.10;;;;;;;11.79;64.97;98198.62;4425193;32;32575;-86
2023/11/04 07:17:21;;;;;;;1.75;0.40;;;;;;;11.67;65.48;98199.50;4407913;32;33683;-86
2023/11/04 07:19:49;;;;;;;1.40;1.30;;;;;;;11.62;66.34;98201.66;4413828;32;32706;-86
2023/11/04 07:22:21;;;;;;;0.25;0.25;;;;;;;11.68;65.72;98209.13;4404730;32;33509;-86
2023/11/04 07:24:48;;;;;;;0.00;0.00;;;;;;;11.54;64.51;98208.38;4396342;32;32597;-85
2023/11/04 07:27:16;;;;;;;0.62;0.62;;;;;;;11.49;64.73;98201.72;4410670;32;32469;-86
2023/11/04 07:29:44;;;;;;;0.10;0.10;;;;;;;11.07;66.47;98209.13;4409613;32;33166;-88
2023/11/04 07:32:12;;;;;;;0.10;0.10;;;;;;;11.26;65.85;98206.03;4411920;32;33843;-86
2023/11/04 07:34:40;;;;;;;0.43;0.43;;;;;;;11.61;64.85;98207.91;4400636;32;33419;-87
2023/11/04 07:37:09;;;;;;;0.13;0.13;;;;;;;11.72;64.08;98213.25;4410984;32;33805;-87
2023/11/04 07:39:40;;;;;;;0.13;0.13;;;;;;;11.36;64.94;98217.63;4416545;32;33011;-87
2023/11/04 07:42:07;;;;;;;1.55;1.45;;;;;;;11.62;64.03;98212.22;4421764;32;32847;-87
2023/11/04 07:44:37;;;;;;;0.47;0.30;;;;;;;11.56;64.82;98208.25;4394236;32;33172;-86
2023/11/04 07:47:05;;;;;;;0.00;0.00;;;;;;;11.46;64.41;98218.63;4395784;32;33150;-87
2023/11/04 07:52:41;;;;;;;0.00;0.00;;;;;;;11.99;63.76;98232.41;4422060;32;33493;-87
2023/11/04 07:55:23;;;;;;;0.00;0.00;;;;;;;11.89;63.27;98226.09;4420928;32;33153;-87
2023/11/04 07:57:51;;;;;;;0.17;0.15;;;;;;;11.58;65.07;98232.75;4416656;32;33859;-87
2023/11/04 08:00:19;;;;;;;0.20;0.20;;;;;;;11.75;64.58;98234.19;4402438;32;32738;-87
2023/11/04 08:02:47;;;;;;;0.80;0.80;;;;;;;11.81;64.47;98236.34;4401027;32;32816;-87
2023/11/04 08:05:15;;;;;;;0.20;0.20;;;;;;;12.09;63.36;98231.72;4398958;32;32592;-87
2023/11/04 08:07:55;;;;;;;0.10;0.10;;;;;;;12.30;62.62;98236.25;4404996;32;33300;-86
2023/11/04 08:10:24;;;;;;;0.00;0.00;;;;;;;12.53;61.41;98230.97;4422153;32;33019;-86
2023/11/04 08:12:51;;;;;;;0.13;0.13;;;;;;;12.32;61.31;98227.34;4403539;32;34487;-86
2023/11/04 08:15:19;;;;;;;0.05;0.05;;;;;;;11.95;64.00;98230.94;4396763;32;32904;-86
2023/11/04 08:17:47;;;;;;;0.00;0.00;;;;;;;12.08;63.79;98224.75;4433743;32;32933;-87
2023/11/04 08:20:15;;;;;;;1.42;0.93;;;;;;;12.40;62.03;98223.16;4415017;32;33808;-87
2023/11/04 08:22:45;;;;;;;0.20;0.20;;;;;;;12.13;62.44;98218.13;4412300;32;32693;-87
2023/11/04 08:25:14;;;;;;;0.55;0.43;;;;;;;12.30;62.33;98214.22;4414868;32;34137;-89
2023/11/04 08:27:42;;;;;;;0.00;0.00;;;;;;;12.75;61.72;98214.28;4405626;32;33581;-88
2023/11/04 08:30:11;;;;;;;0.73;0.50;;;;;;;12.87;60.85;98205.41;4415745;32;33545;-89
2023/11/04 08:32:40;;;;;;;0.40;0.40;;;;;;;12.79;61.91;98205.16;4414736;32;33052;-89
2023/11/04 08:35:08;;;;;;;0.10;0.10;;;;;;;12.72;61.76;98210.09;4408160;32;32478;-89
2023/11/04 08:37:36;;;;;;;0.22;0.17;;;;;;;13.11;58.48;98210.56;4408723;32;33050;-89
2023/11/04 08:40:05;;;;;;;0.00;0.00;;;;;;;13.05;59.73;98214.56;4415856;32;34337;-89
2023/11/04 08:42:33;;;;;;;0.50;0.37;;;;;;;13.00;60.81;98207.91;4409268;32;32566;-89
2023/11/04 08:45:01;;;;;;;0.15;0.10;;;;;;;13.20;60.38;98209.00;4416404;32;33187;-89
2023/11/04 08:47:29;;;;;;;4.37;1.48;;;;;;;13.32;60.36;98197.44;4400846;32;33572;-89
2023/11/04 08:49:56;;;;;;;7.25;0.62;;;;;;;13.38;59.12;98202.22;4428978;32;35589;-90
2023/11/04 08:52:24;;;;;;;0.20;0.20;;;;;;;13.40;59.60;98188.88;4413842;32;32925;-89
2023/11/04 08:54:53;;;;;;;0.75;0.75;;;;;;;13.17;59.65;98180.09;4429398;32;32643;-89
2023/11/04 08:57:20;;;;;;;0.13;0.13;;;;;;;13.04;58.77;98183.69;4403979;32;33032;-89
2023/11/04 08:59:48;;;;;;;0.30;0.30;;;;;;;13.27;58.37;98179.25;4413408;32;33972;-89
2023/11/04 09:02:20;;;;;;;;;;;;;;;13.08;59.76;98176.34;4398569;32;34446;-89
2023/11/04 09:04:48;;;;;;;1.98;0.40;;;;;;;13.26;60.19;98169.63;4414867;32;31339;-89
2023/11/04 09:07:30;;;;;;;0.13;0.13;;;;;;;13.97;57.70;98162.00;4400751;32;32953;-87
2023/11/04 09:09:57;;;;;;;1.98;1.15;;;;;;;14.01;57.41;98166.09;4393208;32;33386;-87
2023/11/04 09:12:25;;;;;;;0.60;0.20;;;;;;;14.08;58.04;98153.97;4410624;32;33983;-87
2023/11/04 09:14:53;;;;;;;0.13;0.13;;;;;;;13.96;58.26;98154.19;4399055;32;32336;-87
2023/11/04 09:17:22;;;;;;;0.88;0.68;;;;;;;14.30;56.25;98152.19;4397133;32;34071;-87
2023/11/04 09:19:51;;;;;;;0.40;0.40;;;;;;;14.67;55.48;98139.28;4411938;32;33609;-87
2023/11/04 09:22:20;;;;;;;0.45;0.32;;;;;;;14.70;55.89;98136.34;4415284;32;33930;-87
2023/11/04 09:24:48;;;;;;;0.00;0.00;;;;;;;15.09;53.43;98123.16;4425465;32;33228;-87
2023/11/04 09:27:16;;;;;;;0.08;0.08;;;;;;;14.73;54.80;98128.09;4402793;32;32798;-87
2023/11/04 09:29:44;;;;;;;0.10;0.10;;;;;;;14.51;55.65;98134.44;4421440;32;32931;-87
2023/11/04 09:32:13;;;;;;;0.25;0.25;;;;;;;14.55;56.08;98127.88;4413466;32;35620;-87
2023/11/04 09:34:43;;;;;;;0.45;0.45;;;;;;;14.66;56.48;98118.13;4410178;32;31714;-87
2023/11/04 09:37:12;;;;;;;0.13;0.13;;;;;;;15.48;51.00;98102.81;4417098;32;34164;-87
2023/11/04 09:39:39;;;;;;;0.17;0.17;;;;;;;15.63;50.21;98111.22;4425588;32;34314;-87
2023/11/04 09:42:09;;;;;;;0.13;0.13;;;;;;;15.32;50.90;98116.63;4411065;32;33828;-87
2023/11/04 09:44:38;;;;;;;0.00;0.00;;;;;;;15.30;52.76;98118.59;4408310;32;32329;-87
2023/11/04 09:47:06;;;;;;;0.10;0.10;;;;;;;15.33;50.12;98121.00;4406791;32;32599;-90
2023/11/04 09:49:34;;;;;;;0.00;0.00;;;;;;;15.37;50.37;98129.53;4419988;32;34915;-89
2023/11/04 09:52:05;;;;;;;0.00;0.00;;;;;;;15.68;50.79;98117.00;4385329;32;32922;-90
2023/11/04 09:54:34;;;;;;;0.00;0.00;;;;;;;16.03;48.74;98118.22;4410467;32;33402;-89
2023/11/04 09:57:02;;;;;;;0.00;0.00;;;;;;;16.54;45.11;98115.16;4395673;32;32826;-90
2023/11/04 09:59:32;;;;;;;0.32;0.32;;;;;;;16.73;43.42;98106.28;4421780;32;33413;-90
2023/11/04 10:02:00;;;;;;;0.05;0.05;;;;;;;16.40;45.06;98094.31;4413745;32;33340;-90
2023/11/04 10:04:29;;;;;;;0.17;0.17;;;;;;;16.28;45.64;98101.63;4400443;32;32370;-90
2023/11/04 10:06:57;;;;;;;0.43;0.43;;;;;;;15.73;45.85;98095.28;4402684;32;33053;-90
2023/11/04 10:09:27;;;;;;;0.05;0.05;;;;;;;16.32;46.31;98099.50;4422335;32;34416;-90
2023/11/04 10:12:00;;;;;;;0.00;0.00;;;;;;;16.80;43.63;98091.34;4409840;32;32459;-90
2023/11/04 10:14:27;;;;;;;0.65;0.32;;;;;;;16.98;44.00;98080.75;4404972;32;33249;-90
2023/11/04 10:16:55;;;;;;;0.13;0.10;;;;;;;16.32;46.61;98084.38;4408293;32;32813;-90
2023/11/04 10:19:23;;;;;;;0.00;0.00;;;;;;;16.67;45.33;98072.19;4413682;32;34070;-90
2023/11/04 10:21:51;;;;;;;0.00;0.00;;;;;;;16.87;44.09;98067.63;4411411;32;33303;-90
2023/11/04 10:24:21;;;;;;;0.00;0.00;;;;;;;17.17;42.18;98070.94;4428245;32;33481;-90
2023/11/04 10:26:49;;;;;;;0.50;0.50;;;;;;;16.80;44.29;98063.88;4424323;32;32762;-90
2023/11/04 10:29:17;;;;;;;0.50;0.50;;;;;;;16.45;46.06;98081.37;4421360;32;32708;-90
2023/11/04 10:31:48;;;;;;;0.10;0.10;;;;;;;16.54;46.05;98058.34;4404658;32;34148;-89
2023/11/04 10:34:17;;;;;;;0.22;0.22;;;;;;;16.94;45.61;98059.84;4404844;32;32167;-89
2023/11/04 10:36:46;;;;;;;0.20;0.20;;;;;;;17.17;45.41;98054.94;4396900;32;32838;-90
2023/11/04 10:39:16;;;;;;;1.55;0.73;;;;;;;16.84;46.32;98058.09;4417683;32;32648;-88
2023/11/04 10:42:06;;;;;;;0.68;0.60;;;;;;;17.28;42.67;98046.72;4417588;32;33169;-89
2023/11/04 10:44:39;;;;;;;0.00;0.00;;;;;;;16.93;43.90;98064.34;4411240;32;32444;-90
2023/11/04 10:47:16;;;;;;;0.20;0.20;;;;;;;16.78;45.10;98061.34;4429291;32;32823;-88
2023/11/04 10:50:23;;;;;;;0.62;0.43;;;;;;;16.72;44.96;98056.63;4426984;32;33270;-89
2023/11/04 10:53:13;;;;;;;0.15;0.00;;;;;;;16.36;47.91;98060.94;4427988;32;33843;-89
2023/11/04 10:55:53;;;;;;;0.00;0.00;;;;;;;16.51;48.31;98051.50;4406720;32;33168;-89
2023/11/04 10:58:34;;;;;;;1.40;0.93;;;;;;;16.75;47.41;98047.47;4407008;32;33317;-90
2023/11/04 11:01:02;;;;;;;0.00;0.00;;;;;;;16.53;46.26;98044.22;4427190;32;33969;-89
2023/11/04 11:03:32;;;;;;;0.05;0.05;;;;;;;16.87;45.02;98044.47;4414580;32;33440;-90
2023/11/04 11:06:02;;;;;;;0.00;0.00;;;;;;;17.10;44.70;98046.72;4410547;32;32629;-88
2023/11/04 11:08:30;;;;;;;0.52;0.52;;;;;;;16.83;46.86;98045.75;4410818;32;33923;-89
2023/11/04 11:11:10;;;;;;;0.30;0.30;;;;;;;17.03;45.62;98035.81;4422668;32;33263;-90
2023/11/04 11:13:40;;;;;;;0.60;0.60;;;;;;;17.54;43.39;98028.94;4428693;32;32909;-90
2023/11/04 11:16:08;;;;;;;0.30;0.30;;;;;;;17.24;45.74;98016.84;4417915;32;33694;-90
2023/11/04 11:18:36;;;;;;;0.20;0.20;;;;;;;17.03;46.36;98016.31;4399342;32;33847;-90
2023/11/04 11:21:11;;;;;;;0.20;0.20;;;;;;;17.29;46.27;98011.06;4409758;32;33425;-90
2023/11/04 11:23:39;;;;;;;0.20;0.20;;;;;;;17.60;45.67;98014.97;4405650;32;32928;-90
2023/11/04 11:26:11;;;;;;;0.85;0.55;;;;;;;17.92;44.05;98013.59;4423203;32;32265;-90
2023/11/04 11:28:40;;;;;;;0.75;0.70;;;;;;;17.55;45.47;98011.94;4413291;32;33202;-90
2023/11/04 11:31:16;;;;;;;0.20;0.20;;;;;;;17.23;47.13;97998.31;4409453;32;33081;-90
2023/11/04 11:33:44;;;;;;;2.50;0.82;;;;;;;17.48;45.48;98005.56;4429495;32;32569;-90
2023/11/04 11:36:14;;;;;;;1.80;0.88;;;;;;;17.68;45.45;98000.88;4397366;32;32495;-90
2023/11/04 11:38:43;;;;;;;0.00;0.00;;;;;;;17.55;44.60;98001.28;4424919;32;32867;-90
2023/11/04 11:41:14;;;;;;;2.12;0.25;;;;;;;17.51;45.47;97999.91;4414710;32;34071;-90
2023/11/04 11:43:48;;;;;;;0.10;0.10;;;;;;;17.43;46.25;98010.53;4403884;32;32708;-89
2023/11/04 11:46:16;;;;;;;0.35;0.20;;;;;;;18.06;44.54;98005.00;4407947;32;33157;-89
2023/11/04 11:48:45;;;;;;;1.67;1.23;;;;;;;18.49;42.74;98000.53;4402171;32;32450;-90
2023/11/04 11:51:14;;;;;;;0.10;0.10;;;;;;;18.42;42.80;98002.19;4421955;32;33368;-89
2023/11/04 11:53:43;;;;;;;0.15;0.15;;;;;;;18.39;42.90;98005.16;4426410;32;32608;-90
2023/11/04 11:56:12;;;;;;;0.10;0.10;;;;;;;17.93;44.49;98004.56;4421512;32;34089;-90
2023/11/04 11:58:40;;;;;;;0.00;0.00;;;;;;;17.63;44.53;98004.00;4403531;32;33377;-90
2023/11/04 12:01:08;;;;;;;0.00;0.00;;;;;;;17.31;43.49;97993.06;4403568;32;33267;-89
2023/11/04 12:03:39;;;;;;;0.08;0.08;;;;;;;17.69;43.57;98001.72;4405027;32;33792;-90
2023/11/04 12:06:08;;;;;;;2.05;0.35;;;;;;;17.94;41.72;97979.53;4404821;32;32359;-90
2023/11/04 12:08:37;;;;;;;0.00;0.00;;;;;;;17.95;41.36;97991.91;4410751;32;32662;-90
2023/11/04 12:11:06;;;;;;;0.00;0.00;;;;;;;18.19;39.95;97988.56;4410331;32;32710;-89
2023/11/04 12:13:36;;;;;;;0.00;0.00;;;;;;;18.34;39.78;97978.94;4404327;32;32649;-90
2023/11/04 12:16:05;;;;;;;0.00;0.00;;;;;;;17.74;41.50;97980.75;4410450;32;33012;-90
2023/11/04 12:18:33;;;;;;;1.20;0.47;;;;;;;17.65;41.96;97980.66;4388369;32;33039;-90
2023/11/04 12:21:02;;;;;;;0.65;0.65;;;;;;;17.91;42.14;97982.53;4403740;32;33257;-90
2023/11/04 12:23:29;;;;;;;0.20;0.20;;;;;;;18.26;41.07;97975.38;4397218;32;33443;-90
2023/11/04 12:26:00;;;;;;;0.00;0.00;;;;;;;17.99;41.53;97987.06;4402952;32;32474;-90
2023/11/04 12:28:28;;;;;;;0.20;0.20;;;;;;;18.14;40.98;97975.66;4417634;32;33712;-89
2023/11/04 12:31:01;;;;;;;0.00;0.00;;;;;;;18.30;40.35;97974.06;4397523;32;32935;-90
2023/11/04 12:33:30;;;;;;;0.00;0.00;;;;;;;18.38;40.58;97982.97;4409285;32;33441;-90